sensor_id;sensor_type;location;lat;lon;timestamp;pressure;altitude;pressure_sealevel;temperature;humidity
80323;BME280;69636;52.372;13.610;2023-06-26T00:01:43;101346.09;;;18.79;88.56
80323;BME280;69636;52.372;13.610;2023-06-26T00:04:10;101342.84;;;18.83;88.20
80323;BME280;69636;52.372;13.610;2023-06-26T00:06:39;101344.66;;;18.40;90.82
80323;BME280;69636;52.372;13.610;2023-06-26T00:09:06;101337.25;;;18.27;91.59
80323;BME280;69636;52.372;13.610;2023-06-26T00:11:33;101340.19;;;18.11;91.90
80323;BME280;69636;52.372;13.610;2023-06-26T00:14:01;101336.03;;;18.45;90.35
80323;BME280;69636;52.372;13.610;2023-06-26T00:16:28;101328.84;;;18.73;88.91
80323;BME280;69636;52.372;13.610;2023-06-26T00:18:55;101336.72;;;18.53;89.43
80323;BME280;69636;52.372;13.610;2023-06-26T00:21:23;101330.59;;;18.59;88.79
80323;BME280;69636;52.372;13.610;2023-06-26T00:23:51;101335.88;;;18.53;89.11
80323;BME280;69636;52.372;13.610;2023-06-26T00:26:19;101332.72;;;18.64;89.04
80323;BME280;69636;52.372;13.610;2023-06-26T00:28:46;101338.28;;;18.48;89.40
80323;BME280;69636;52.372;13.610;2023-06-26T00:31:14;101332.53;;;18.51;89.71
80323;BME280;69636;52.372;13.610;2023-06-26T00:33:41;101337.25;;;18.27;90.34
80323;BME280;69636;52.372;13.610;2023-06-26T00:36:08;101336.06;;;18.51;89.40
80323;BME280;69636;52.372;13.610;2023-06-26T00:38:35;101330.84;;;18.28;90.16
80323;BME280;69636;52.372;13.610;2023-06-26T00:41:04;101326.09;;;18.09;90.84
80323;BME280;69636;52.372;13.610;2023-06-26T00:43:31;101332.84;;;18.05;91.54
80323;BME280;69636;52.372;13.610;2023-06-26T00:45:59;101321.94;;;18.07;91.55
80323;BME280;69636;52.372;13.610;2023-06-26T00:48:26;101319.31;;;18.13;90.99
80323;BME280;69636;52.372;13.610;2023-06-26T00:50:54;101324.63;;;18.07;90.99
80323;BME280;69636;52.372;13.610;2023-06-26T00:53:22;101325.22;;;17.87;92.57
80323;BME280;69636;52.372;13.610;2023-06-26T00:55:49;101322.63;;;17.79;93.10
80323;BME280;69636;52.372;13.610;2023-06-26T00:58:18;101328.25;;;17.70;94.40
80323;BME280;69636;52.372;13.610;2023-06-26T01:00:45;101326.59;;;17.69;94.53
80323;BME280;69636;52.372;13.610;2023-06-26T01:03:13;101321.94;;;17.62;94.52
80323;BME280;69636;52.372;13.610;2023-06-26T01:05:40;101321.31;;;17.60;95.21
80323;BME280;69636;52.372;13.610;2023-06-26T01:08:08;101321.03;;;17.55;95.46
80323;BME280;69636;52.372;13.610;2023-06-26T01:10:36;101319.94;;;17.65;94.91
80323;BME280;69636;52.372;13.610;2023-06-26T01:13:04;101315.09;;;17.60;94.76
80323;BME280;69636;52.372;13.610;2023-06-26T01:15:33;101306.69;;;17.63;94.57
80323;BME280;69636;52.372;13.610;2023-06-26T01:18:00;101315.00;;;17.53;95.35
80323;BME280;69636;52.372;13.610;2023-06-26T01:20:30;101305.56;;;17.57;95.43
80323;BME280;69636;52.372;13.610;2023-06-26T01:23:05;101303.91;;;17.56;95.26
80323;BME280;69636;52.372;13.610;2023-06-26T01:25:38;101295.28;;;17.76;93.79
80323;BME280;69636;52.372;13.610;2023-06-26T01:28:13;101297.34;;;17.74;93.62
80323;BME280;69636;52.372;13.610;2023-06-26T01:30:43;101296.44;;;17.67;94.03
80323;BME280;69636;52.372;13.610;2023-06-26T01:33:12;101290.75;;;17.76;93.21
80323;BME280;69636;52.372;13.610;2023-06-26T01:35:40;101290.66;;;17.84;92.56
80323;BME280;69636;52.372;13.610;2023-06-26T01:38:15;101287.66;;;17.94;91.63
80323;BME280;69636;52.372;13.610;2023-06-26T01:40:43;101286.78;;;17.87;92.15
80323;BME280;69636;52.372;13.610;2023-06-26T01:43:15;101288.16;;;17.68;93.05
80323;BME280;69636;52.372;13.610;2023-06-26T01:45:48;101289.72;;;17.62;93.03
80323;BME280;69636;52.372;13.610;2023-06-26T01:48:20;101292.13;;;17.43;93.93
80323;BME280;69636;52.372;13.610;2023-06-26T01:50:51;101277.94;;;17.93;91.32
80323;BME280;69636;52.372;13.610;2023-06-26T01:53:21;101286.09;;;18.00;90.99
80323;BME280;69636;52.372;13.610;2023-06-26T01:55:53;101284.66;;;17.68;92.83
80323;BME280;69636;52.372;13.610;2023-06-26T01:58:25;101275.09;;;17.80;91.69
80323;BME280;69636;52.372;13.610;2023-06-26T02:00:53;101273.91;;;17.68;92.34
80323;BME280;69636;52.372;13.610;2023-06-26T02:03:20;101270.94;;;17.48;93.49
80323;BME280;69636;52.372;13.610;2023-06-26T02:05:47;101270.41;;;17.38;94.05
80323;BME280;69636;52.372;13.610;2023-06-26T02:08:15;101276.50;;;17.61;92.47
80323;BME280;69636;52.372;13.610;2023-06-26T02:10:42;101272.69;;;17.55;92.38
80323;BME280;69636;52.372;13.610;2023-06-26T02:13:09;101280.13;;;17.39;94.12
80323;BME280;69636;52.372;13.610;2023-06-26T02:15:39;101284.38;;;17.62;92.52
80323;BME280;69636;52.372;13.610;2023-06-26T02:18:06;101278.81;;;17.49;93.13
80323;BME280;69636;52.372;13.610;2023-06-26T02:20:33;101270.66;;;17.28;94.33
80323;BME280;69636;52.372;13.610;2023-06-26T02:23:01;101272.78;;;17.18;94.75
80323;BME280;69636;52.372;13.610;2023-06-26T02:25:28;101270.28;;;17.16;95.30
80323;BME280;69636;52.372;13.610;2023-06-26T02:27:55;101268.25;;;17.18;95.54
80323;BME280;69636;52.372;13.610;2023-06-26T02:30:23;101275.84;;;17.15;95.79
80323;BME280;69636;52.372;13.610;2023-06-26T02:32:51;101269.25;;;17.03;96.21
80323;BME280;69636;52.372;13.610;2023-06-26T02:35:19;101269.97;;;16.96;96.62
80323;BME280;69636;52.372;13.610;2023-06-26T02:37:46;101268.50;;;16.94;96.41
80323;BME280;69636;52.372;13.610;2023-06-26T02:40:14;101274.69;;;16.94;96.54
80323;BME280;69636;52.372;13.610;2023-06-26T02:42:41;101277.03;;;17.12;95.58
80323;BME280;69636;52.372;13.610;2023-06-26T02:45:09;101274.44;;;17.19;95.10
80323;BME280;69636;52.372;13.610;2023-06-26T02:47:36;101269.44;;;17.01;96.09
80323;BME280;69636;52.372;13.610;2023-06-26T02:50:06;101270.75;;;17.05;96.29
80323;BME280;69636;52.372;13.610;2023-06-26T02:52:33;101267.16;;;17.13;95.61
80323;BME280;69636;52.372;13.610;2023-06-26T02:55:01;101264.06;;;17.16;94.34
80323;BME280;69636;52.372;13.610;2023-06-26T02:57:28;101260.66;;;17.22;93.96
80323;BME280;69636;52.372;13.610;2023-06-26T02:59:55;101264.56;;;17.34;92.96
80323;BME280;69636;52.372;13.610;2023-06-26T03:02:22;101266.31;;;17.71;90.72
80323;BME280;69636;52.372;13.610;2023-06-26T03:04:50;101266.41;;;17.78;90.19
80323;BME280;69636;52.372;13.610;2023-06-26T03:07:18;101255.84;;;17.61;90.85
80323;BME280;69636;52.372;13.610;2023-06-26T03:09:46;101262.97;;;17.25;93.62
80323;BME280;69636;52.372;13.610;2023-06-26T03:12:13;101254.28;;;17.08;94.48
80323;BME280;69636;52.372;13.610;2023-06-26T03:14:40;101261.97;;;17.26;93.52
80323;BME280;69636;52.372;13.610;2023-06-26T03:17:07;101252.16;;;17.62;90.96
80323;BME280;69636;52.372;13.610;2023-06-26T03:19:35;101250.88;;;17.29;92.55
80323;BME280;69636;52.372;13.610;2023-06-26T03:22:02;101248.34;;;17.42;92.20
80323;BME280;69636;52.372;13.610;2023-06-26T03:24:31;101249.31;;;17.35;92.55
80323;BME280;69636;52.372;13.610;2023-06-26T03:26:58;101242.53;;;17.09;94.28
80323;BME280;69636;52.372;13.610;2023-06-26T03:29:26;101245.66;;;16.98;94.86
80323;BME280;69636;52.372;13.610;2023-06-26T03:31:53;101242.72;;;17.08;95.25
80323;BME280;69636;52.372;13.610;2023-06-26T03:34:20;101235.69;;;17.07;95.34
80323;BME280;69636;52.372;13.610;2023-06-26T03:36:48;101241.59;;;17.17;95.12
80323;BME280;69636;52.372;13.610;2023-06-26T03:39:15;101241.53;;;17.10;95.54
80323;BME280;69636;52.372;13.610;2023-06-26T03:41:44;101232.00;;;17.08;96.36
80323;BME280;69636;52.372;13.610;2023-06-26T03:44:11;101233.72;;;17.15;96.13
80323;BME280;69636;52.372;13.610;2023-06-26T03:46:38;101231.25;;;17.14;95.80
80323;BME280;69636;52.372;13.610;2023-06-26T03:49:06;101235.41;;;17.16;96.40
80323;BME280;69636;52.372;13.610;2023-06-26T03:51:37;101236.31;;;17.23;96.30
80323;BME280;69636;52.372;13.610;2023-06-26T03:54:04;101238.81;;;17.54;94.61
80323;BME280;69636;52.372;13.610;2023-06-26T03:56:31;101232.81;;;17.52;94.77
80323;BME280;69636;52.372;13.610;2023-06-26T03:59:00;101234.09;;;17.56;94.78
80323;BME280;69636;52.372;13.610;2023-06-26T04:01:30;101233.50;;;17.90;93.06
80323;BME280;69636;52.372;13.610;2023-06-26T04:03:57;101238.25;;;17.88;93.02
80323;BME280;69636;52.372;13.610;2023-06-26T04:06:25;101228.56;;;17.94;93.09
80323;BME280;69636;52.372;13.610;2023-06-26T04:08:52;101233.44;;;17.84;94.03
80323;BME280;69636;52.372;13.610;2023-06-26T04:11:19;101235.09;;;17.85;94.25
80323;BME280;69636;52.372;13.610;2023-06-26T04:13:46;101231.38;;;17.86;94.89
80323;BME280;69636;52.372;13.610;2023-06-26T04:16:15;101222.34;;;18.08;94.06
80323;BME280;69636;52.372;13.610;2023-06-26T04:18:43;101227.59;;;18.16;94.21
80323;BME280;69636;52.372;13.610;2023-06-26T04:21:11;101235.06;;;18.42;93.49
80323;BME280;69636;52.372;13.610;2023-06-26T04:23:40;101222.75;;;18.76;91.62
80323;BME280;69636;52.372;13.610;2023-06-26T04:26:08;101225.56;;;18.89;90.68
80323;BME280;69636;52.372;13.610;2023-06-26T04:28:35;101223.59;;;18.76;91.86
80323;BME280;69636;52.372;13.610;2023-06-26T04:31:02;101222.94;;;18.74;92.12
80323;BME280;69636;52.372;13.610;2023-06-26T04:33:31;101228.13;;;18.76;92.11
80323;BME280;69636;52.372;13.610;2023-06-26T04:35:58;101224.03;;;18.80;92.31
80323;BME280;69636;52.372;13.610;2023-06-26T04:38:26;101223.50;;;18.91;91.56
80323;BME280;69636;52.372;13.610;2023-06-26T04:40:53;101222.03;;;18.88;91.73
80323;BME280;69636;52.372;13.610;2023-06-26T04:43:20;101218.69;;;18.86;91.79
80323;BME280;69636;52.372;13.610;2023-06-26T04:45:48;101227.84;;;18.92;92.00
80323;BME280;69636;52.372;13.610;2023-06-26T04:48:15;101226.69;;;19.08;91.53
80323;BME280;69636;52.372;13.610;2023-06-26T04:50:44;101223.81;;;19.09;91.11
80323;BME280;69636;52.372;13.610;2023-06-26T04:53:11;101224.66;;;19.10;90.71
80323;BME280;69636;52.372;13.610;2023-06-26T04:55:38;101227.16;;;19.11;89.76
80323;BME280;69636;52.372;13.610;2023-06-26T04:58:06;101223.53;;;19.32;89.07
80323;BME280;69636;52.372;13.610;2023-06-26T05:00:33;101219.03;;;19.39;88.79
80323;BME280;69636;52.372;13.610;2023-06-26T05:03:00;101216.09;;;19.34;88.94
80323;BME280;69636;52.372;13.610;2023-06-26T05:05:28;101216.97;;;19.41;89.24
80323;BME280;69636;52.372;13.610;2023-06-26T05:07:57;101209.13;;;19.46;88.24
80323;BME280;69636;52.372;13.610;2023-06-26T05:10:24;101212.22;;;19.50;87.72
80323;BME280;69636;52.372;13.610;2023-06-26T05:12:51;101214.34;;;19.54;87.70
80323;BME280;69636;52.372;13.610;2023-06-26T05:15:18;101215.59;;;19.58;87.40
80323;BME280;69636;52.372;13.610;2023-06-26T05:17:46;101212.97;;;19.72;86.41
80323;BME280;69636;52.372;13.610;2023-06-26T05:20:13;101220.44;;;19.70;86.33
80323;BME280;69636;52.372;13.610;2023-06-26T05:22:41;101219.59;;;19.76;86.33
80323;BME280;69636;52.372;13.610;2023-06-26T05:25:10;101220.69;;;19.88;85.73
80323;BME280;69636;52.372;13.610;2023-06-26T05:27:38;101211.56;;;19.89;85.63
80323;BME280;69636;52.372;13.610;2023-06-26T05:30:07;101207.03;;;20.09;85.67
80323;BME280;69636;52.372;13.610;2023-06-26T05:32:35;101198.56;;;20.12;84.41
80323;BME280;69636;52.372;13.610;2023-06-26T05:35:03;101202.09;;;20.19;83.61
80323;BME280;69636;52.372;13.610;2023-06-26T05:37:31;101210.03;;;20.41;83.26
80323;BME280;69636;52.372;13.610;2023-06-26T05:39:59;101196.75;;;20.39;84.14
80323;BME280;69636;52.372;13.610;2023-06-26T05:42:28;101190.31;;;20.53;82.59
80323;BME280;69636;52.372;13.610;2023-06-26T05:44:55;101185.53;;;20.55;82.81
80323;BME280;69636;52.372;13.610;2023-06-26T05:47:23;101182.00;;;20.68;83.19
80323;BME280;69636;52.372;13.610;2023-06-26T05:49:50;101182.84;;;20.75;83.34
80323;BME280;69636;52.372;13.610;2023-06-26T05:52:18;101183.47;;;20.77;82.00
80323;BME280;69636;52.372;13.610;2023-06-26T05:54:46;101183.22;;;20.98;80.08
80323;BME280;69636;52.372;13.610;2023-06-26T05:57:15;101180.66;;;21.17;79.73
80323;BME280;69636;52.372;13.610;2023-06-26T05:59:44;101175.38;;;21.48;76.58
80323;BME280;69636;52.372;13.610;2023-06-26T06:02:12;101180.50;;;21.63;74.96
80323;BME280;69636;52.372;13.610;2023-06-26T06:04:39;101167.13;;;21.81;74.92
80323;BME280;69636;52.372;13.610;2023-06-26T06:07:06;101167.56;;;22.10;74.41
80323;BME280;69636;52.372;13.610;2023-06-26T06:09:34;101179.00;;;22.37;73.69
80323;BME280;69636;52.372;13.610;2023-06-26T06:12:01;101172.28;;;22.46;73.23
80323;BME280;69636;52.372;13.610;2023-06-26T06:14:28;101165.81;;;22.47;72.74
80323;BME280;69636;52.372;13.610;2023-06-26T06:16:57;101170.63;;;22.45;72.40
80323;BME280;69636;52.372;13.610;2023-06-26T06:19:25;101168.56;;;22.65;71.17
80323;BME280;69636;52.372;13.610;2023-06-26T06:21:52;101164.28;;;22.82;69.78
80323;BME280;69636;52.372;13.610;2023-06-26T06:24:20;101160.06;;;22.86;67.77
80323;BME280;69636;52.372;13.610;2023-06-26T06:26:47;101164.28;;;22.82;68.71
80323;BME280;69636;52.372;13.610;2023-06-26T06:29:15;101157.81;;;23.01;68.02
80323;BME280;69636;52.372;13.610;2023-06-26T06:31:42;101166.97;;;23.19;66.86
80323;BME280;69636;52.372;13.610;2023-06-26T06:34:11;101160.00;;;23.29;66.81
80323;BME280;69636;52.372;13.610;2023-06-26T06:36:38;101161.00;;;23.47;67.21
80323;BME280;69636;52.372;13.610;2023-06-26T06:39:05;101156.50;;;23.89;66.91
80323;BME280;69636;52.372;13.610;2023-06-26T06:41:32;101149.19;;;23.89;65.77
80323;BME280;69636;52.372;13.610;2023-06-26T06:44:03;101147.19;;;23.96;66.71
80323;BME280;69636;52.372;13.610;2023-06-26T06:46:30;101161.22;;;23.93;66.25
80323;BME280;69636;52.372;13.610;2023-06-26T06:48:58;101161.94;;;24.00;65.99
80323;BME280;69636;52.372;13.610;2023-06-26T06:51:26;101155.38;;;24.20;64.17
80323;BME280;69636;52.372;13.610;2023-06-26T06:53:54;101151.91;;;24.31;63.78
80323;BME280;69636;52.372;13.610;2023-06-26T06:56:21;101149.56;;;24.58;61.42
80323;BME280;69636;52.372;13.610;2023-06-26T06:58:48;101157.22;;;24.73;60.63
80323;BME280;69636;52.372;13.610;2023-06-26T07:01:15;101149.66;;;24.86;59.27
80323;BME280;69636;52.372;13.610;2023-06-26T07:03:43;101155.47;;;24.66;59.20
80323;BME280;69636;52.372;13.610;2023-06-26T07:06:10;101150.25;;;24.88;60.25
80323;BME280;69636;52.372;13.610;2023-06-26T07:08:39;101153.66;;;25.19;59.30
80323;BME280;69636;52.372;13.610;2023-06-26T07:11:06;101141.31;;;25.28;58.77
80323;BME280;69636;52.372;13.610;2023-06-26T07:13:33;101145.16;;;25.15;58.43
80323;BME280;69636;52.372;13.610;2023-06-26T07:16:00;101140.44;;;25.11;57.76
80323;BME280;69636;52.372;13.610;2023-06-26T07:18:28;101136.09;;;25.38;58.58
80323;BME280;69636;52.372;13.610;2023-06-26T07:20:55;101141.09;;;25.69;55.19
80323;BME280;69636;52.372;13.610;2023-06-26T07:23:22;101137.41;;;25.92;55.27
80323;BME280;69636;52.372;13.610;2023-06-26T07:25:51;101136.59;;;25.92;54.82
80323;BME280;69636;52.372;13.610;2023-06-26T07:28:18;101130.25;;;26.03;53.05
80323;BME280;69636;52.372;13.610;2023-06-26T07:30:45;101131.53;;;25.84;54.24
80323;BME280;69636;52.372;13.610;2023-06-26T07:33:12;101133.38;;;25.95;55.25
80323;BME280;69636;52.372;13.610;2023-06-26T07:35:40;101128.78;;;26.12;54.44
80323;BME280;69636;52.372;13.610;2023-06-26T07:38:07;101131.53;;;26.46;54.55
80323;BME280;69636;52.372;13.610;2023-06-26T07:40:34;101133.38;;;26.28;54.28
80323;BME280;69636;52.372;13.610;2023-06-26T07:43:02;101135.53;;;26.10;54.59
80323;BME280;69636;52.372;13.610;2023-06-26T07:45:30;101127.75;;;26.01;56.36
80323;BME280;69636;52.372;13.610;2023-06-26T07:47:57;101128.19;;;26.10;56.22
80323;BME280;69636;52.372;13.610;2023-06-26T07:50:24;101119.75;;;26.62;53.71
80323;BME280;69636;52.372;13.610;2023-06-26T07:52:52;101122.41;;;26.57;53.66
80323;BME280;69636;52.372;13.610;2023-06-26T07:55:19;101122.91;;;26.54;55.60
80323;BME280;69636;52.372;13.610;2023-06-26T07:57:46;101113.66;;;26.72;51.15
80323;BME280;69636;52.372;13.610;2023-06-26T08:00:15;101108.94;;;27.06;52.17
80323;BME280;69636;52.372;13.610;2023-06-26T08:02:42;101106.19;;;27.06;51.70
80323;BME280;69636;52.372;13.610;2023-06-26T08:05:10;101107.75;;;26.96;49.76
80323;BME280;69636;52.372;13.610;2023-06-26T08:07:37;101105.50;;;26.93;49.59
80323;BME280;69636;52.372;13.610;2023-06-26T08:10:05;101104.84;;;26.86;49.96
80323;BME280;69636;52.372;13.610;2023-06-26T08:12:32;101096.09;;;26.84;50.04
80323;BME280;69636;52.372;13.610;2023-06-26T08:14:59;101097.84;;;27.12;48.25
80323;BME280;69636;52.372;13.610;2023-06-26T08:17:27;101096.59;;;27.47;47.17
80323;BME280;69636;52.372;13.610;2023-06-26T08:19:56;101095.88;;;27.83;46.08
80323;BME280;69636;52.372;13.610;2023-06-26T08:22:24;101092.53;;;28.08;46.37
80323;BME280;69636;52.372;13.610;2023-06-26T08:24:51;101093.28;;;28.30;45.69
80323;BME280;69636;52.372;13.610;2023-06-26T08:27:18;101092.63;;;28.60;45.47
80323;BME280;69636;52.372;13.610;2023-06-26T08:29:46;101086.09;;;28.61;45.85
80323;BME280;69636;52.372;13.610;2023-06-26T08:32:13;101087.34;;;28.91;43.78
80323;BME280;69636;52.372;13.610;2023-06-26T08:34:41;101087.84;;;29.55;39.77
80323;BME280;69636;52.372;13.610;2023-06-26T08:37:09;101087.75;;;29.25;40.37
80323;BME280;69636;52.372;13.610;2023-06-26T08:39:36;101085.47;;;28.96;42.00
80323;BME280;69636;52.372;13.610;2023-06-26T08:42:04;101091.53;;;29.14;41.34
80323;BME280;69636;52.372;13.610;2023-06-26T08:44:31;101085.13;;;29.91;40.24
80323;BME280;69636;52.372;13.610;2023-06-26T08:46:59;101085.13;;;30.36;40.92
80323;BME280;69636;52.372;13.610;2023-06-26T08:49:32;101077.97;;;30.51;38.81
80323;BME280;69636;52.372;13.610;2023-06-26T08:52:09;101077.38;;;31.38;36.69
80323;BME280;69636;52.372;13.610;2023-06-26T08:54:43;101073.31;;;32.04;36.28
80323;BME280;69636;52.372;13.610;2023-06-26T08:57:14;101069.28;;;32.25;35.96
80323;BME280;69636;52.372;13.610;2023-06-26T08:59:47;101065.44;;;32.98;31.87
80323;BME280;69636;52.372;13.610;2023-06-26T09:02:14;101069.13;;;33.50;33.04
80323;BME280;69636;52.372;13.610;2023-06-26T09:04:42;101073.97;;;32.49;33.32
80323;BME280;69636;52.372;13.610;2023-06-26T09:07:10;101070.38;;;32.77;34.13
80323;BME280;69636;52.372;13.610;2023-06-26T09:09:38;101064.25;;;33.79;32.06
80323;BME280;69636;52.372;13.610;2023-06-26T09:12:06;101056.75;;;34.58;31.36
80323;BME280;69636;52.372;13.610;2023-06-26T09:14:36;101054.59;;;34.96;29.31
80323;BME280;69636;52.372;13.610;2023-06-26T09:17:03;101061.75;;;34.70;29.44
80323;BME280;69636;52.372;13.610;2023-06-26T09:19:32;101054.31;;;34.43;32.20
80323;BME280;69636;52.372;13.610;2023-06-26T09:22:03;101042.84;;;33.20;33.47
80323;BME280;69636;52.372;13.610;2023-06-26T09:24:32;101043.19;;;33.69;32.98
80323;BME280;69636;52.372;13.610;2023-06-26T09:27:01;101046.50;;;33.34;32.54
80323;BME280;69636;52.372;13.610;2023-06-26T09:29:28;101033.97;;;32.85;32.98
80323;BME280;69636;52.372;13.610;2023-06-26T09:31:56;101031.53;;;32.60;34.37
80323;BME280;69636;52.372;13.610;2023-06-26T09:34:30;101036.44;;;32.63;34.28
80323;BME280;69636;52.372;13.610;2023-06-26T09:36:57;101033.75;;;33.00;32.80
80323;BME280;69636;52.372;13.610;2023-06-26T09:39:25;101033.03;;;32.71;32.76
80323;BME280;69636;52.372;13.610;2023-06-26T09:41:53;101030.00;;;32.49;33.50
80323;BME280;69636;52.372;13.610;2023-06-26T09:44:21;101023.72;;;32.19;33.56
80323;BME280;69636;52.372;13.610;2023-06-26T09:46:48;101019.44;;;32.08;35.43
80323;BME280;69636;52.372;13.610;2023-06-26T09:49:16;101024.28;;;31.53;35.06
80323;BME280;69636;52.372;13.610;2023-06-26T09:51:43;101026.59;;;31.41;35.28
80323;BME280;69636;52.372;13.610;2023-06-26T09:54:11;101018.53;;;31.11;35.93
80323;BME280;69636;52.372;13.610;2023-06-26T09:56:39;101024.56;;;31.52;35.43
80323;BME280;69636;52.372;13.610;2023-06-26T09:59:07;101018.06;;;32.34;33.59
80323;BME280;69636;52.372;13.610;2023-06-26T10:01:41;101017.13;;;32.68;34.19
80323;BME280;69636;52.372;13.610;2023-06-26T10:04:09;101015.63;;;32.57;33.75
80323;BME280;69636;52.372;13.610;2023-06-26T10:06:39;101007.22;;;32.91;32.63
80323;BME280;69636;52.372;13.610;2023-06-26T10:09:08;101007.75;;;33.12;31.57
80323;BME280;69636;52.372;13.610;2023-06-26T10:11:41;100992.59;;;32.95;31.27
80323;BME280;69636;52.372;13.610;2023-06-26T10:14:13;101001.16;;;32.70;32.55
80323;BME280;69636;52.372;13.610;2023-06-26T10:16:44;100997.84;;;32.25;34.48
80323;BME280;69636;52.372;13.610;2023-06-26T10:19:14;100997.88;;;32.92;32.10
80323;BME280;69636;52.372;13.610;2023-06-26T10:21:44;100996.59;;;32.84;32.89
80323;BME280;69636;52.372;13.610;2023-06-26T10:24:12;100988.25;;;33.46;32.41
80323;BME280;69636;52.372;13.610;2023-06-26T10:26:44;100983.28;;;33.29;32.25
80323;BME280;69636;52.372;13.610;2023-06-26T10:29:14;100986.72;;;33.72;32.34
80323;BME280;69636;52.372;13.610;2023-06-26T10:31:45;100971.88;;;33.87;32.13
80323;BME280;69636;52.372;13.610;2023-06-26T10:34:13;100972.38;;;33.56;33.32
80323;BME280;69636;52.372;13.610;2023-06-26T10:36:41;100969.88;;;32.66;34.58
80323;BME280;69636;52.372;13.610;2023-06-26T10:41:38;100956.25;;;32.98;33.22
80323;BME280;69636;52.372;13.610;2023-06-26T10:44:17;100957.97;;;32.94;33.45
80323;BME280;69636;52.372;13.610;2023-06-26T10:46:49;100957.34;;;33.16;33.17
80323;BME280;69636;52.372;13.610;2023-06-26T10:49:17;100955.09;;;33.18;32.35
80323;BME280;69636;52.372;13.610;2023-06-26T10:51:46;100957.56;;;33.52;32.31
80323;BME280;69636;52.372;13.610;2023-06-26T10:54:15;100950.34;;;33.56;31.48
80323;BME280;69636;52.372;13.610;2023-06-26T10:56:43;100944.22;;;34.05;31.13
80323;BME280;69636;52.372;13.610;2023-06-26T10:59:13;100946.69;;;34.07;31.06
80323;BME280;69636;52.372;13.610;2023-06-26T11:01:43;100946.16;;;34.60;29.42
80323;BME280;69636;52.372;13.610;2023-06-26T11:04:12;100939.56;;;34.33;30.86
80323;BME280;69636;52.372;13.610;2023-06-26T11:06:40;100935.41;;;34.72;28.92
80323;BME280;69636;52.372;13.610;2023-06-26T11:09:09;100934.34;;;34.95;29.54
80323;BME280;69636;52.372;13.610;2023-06-26T11:11:58;100939.41;;;34.80;29.52
80323;BME280;69636;52.372;13.610;2023-06-26T11:14:26;100932.50;;;34.55;29.77
80323;BME280;69636;52.372;13.610;2023-06-26T11:16:56;100927.75;;;34.69;29.61
80323;BME280;69636;52.372;13.610;2023-06-26T11:19:26;100932.81;;;34.53;28.95
80323;BME280;69636;52.372;13.610;2023-06-26T11:21:58;100921.91;;;34.34;29.05
80323;BME280;69636;52.372;13.610;2023-06-26T11:24:26;100923.59;;;35.30;29.12
80323;BME280;69636;52.372;13.610;2023-06-26T11:26:53;100922.38;;;35.00;29.04
80323;BME280;69636;52.372;13.610;2023-06-26T11:29:21;100925.53;;;35.07;27.96
80323;BME280;69636;52.372;13.610;2023-06-26T11:31:59;100906.84;;;35.04;30.08
80323;BME280;69636;52.372;13.610;2023-06-26T11:34:32;100910.81;;;34.62;30.45
80323;BME280;69636;52.372;13.610;2023-06-26T11:36:59;100912.19;;;34.51;29.21
80323;BME280;69636;52.372;13.610;2023-06-26T11:39:27;100913.31;;;34.22;30.79
80323;BME280;69636;52.372;13.610;2023-06-26T11:41:54;100909.31;;;35.14;29.00
80323;BME280;69636;52.372;13.610;2023-06-26T11:44:21;100899.22;;;34.87;29.44
80323;BME280;69636;52.372;13.610;2023-06-26T11:46:52;100896.78;;;34.36;30.97
80323;BME280;69636;52.372;13.610;2023-06-26T11:49:21;100889.66;;;34.71;29.07
80323;BME280;69636;52.372;13.610;2023-06-26T11:51:49;100891.63;;;34.57;29.84
80323;BME280;69636;52.372;13.610;2023-06-26T11:54:23;100879.56;;;34.80;28.96
80323;BME280;69636;52.372;13.610;2023-06-26T11:56:57;100881.59;;;35.19;29.00
80323;BME280;69636;52.372;13.610;2023-06-26T11:59:33;100871.97;;;35.08;29.48
80323;BME280;69636;52.372;13.610;2023-06-26T12:02:04;100866.94;;;34.52;30.69
80323;BME280;69636;52.372;13.610;2023-06-26T12:04:34;100858.34;;;34.89;28.95
80323;BME280;69636;52.372;13.610;2023-06-26T12:07:02;100860.88;;;34.99;28.75
80323;BME280;69636;52.372;13.610;2023-06-26T12:09:30;100850.22;;;35.37;27.21
80323;BME280;69636;52.372;13.610;2023-06-26T12:11:58;100846.16;;;35.35;28.32
80323;BME280;69636;52.372;13.610;2023-06-26T12:14:26;100843.31;;;34.95;28.21
80323;BME280;69636;52.372;13.610;2023-06-26T12:16:54;100836.75;;;35.36;29.12
80323;BME280;69636;52.372;13.610;2023-06-26T12:19:24;100836.63;;;35.19;28.35
80323;BME280;69636;52.372;13.610;2023-06-26T12:21:53;100833.28;;;34.27;30.00
80323;BME280;69636;52.372;13.610;2023-06-26T12:24:23;100835.03;;;34.23;29.73
80323;BME280;69636;52.372;13.610;2023-06-26T12:26:51;100820.81;;;34.44;30.42
80323;BME280;69636;52.372;13.610;2023-06-26T12:29:20;100817.56;;;34.42;29.54
80323;BME280;69636;52.372;13.610;2023-06-26T12:31:51;100820.84;;;34.16;30.10
80323;BME280;69636;52.372;13.610;2023-06-26T12:34:20;100810.41;;;34.41;30.55
80323;BME280;69636;52.372;13.610;2023-06-26T12:36:49;100815.97;;;34.85;30.54
80323;BME280;69636;52.372;13.610;2023-06-26T12:39:19;100819.28;;;34.01;30.57
80323;BME280;69636;52.372;13.610;2023-06-26T12:41:48;100815.56;;;34.06;31.07
80323;BME280;69636;52.372;13.610;2023-06-26T12:44:19;100798.97;;;34.92;28.89
80323;BME280;69636;52.372;13.610;2023-06-26T12:46:48;100798.25;;;35.09;28.58
80323;BME280;69636;52.372;13.610;2023-06-26T12:49:16;100805.09;;;35.11;29.43